AF1605 / F-GKXY 7700 Squawk Report (17th of October, 2018)

Aircraft A320 Reg No. F-GKXY Age 9 years old
Model A320 Jet engines 2 First flight 12-11-09
Registered 30-11-17 Rollout 11-09 Delivered 25-11-09
Construction No. 4105 Line No. N/A Series 214
ADSHEX 392AF8 Airline name Joon Owner Whitney Ireland Leasing Ltd
Airfield based Paris-Charles de Gaulle~Val-d'Oise~F First tracked 2011-04-01 19:57:01
Time Lat Lon Altitude Heading Speed Vertical Rate
2018-10-17 17:51:30 GMT 45.590652 8.744380 1,125 350 145 -768
2018-10-17 17:51:19 GMT 45.583191 8.746390 1,200 350 145 -768
2018-10-17 17:51:13 GMT 45.578785 8.747520 1,275 351 145 -576
2018-10-17 17:51:02 GMT 45.568356 8.750473 1,450 349 150 -704
2018-10-17 17:50:50 GMT 45.563889 8.751778 1,525 350 157 -1024
2018-10-17 17:50:40 GMT 45.556732 8.753759 1,700 349 166 -832
2018-10-17 17:50:29 GMT 45.548401 8.756104 1,875 350 180 -768
2018-10-17 17:50:21 GMT 45.541264 8.757979 2,050 350 200 -1216
2018-10-17 17:50:17 GMT 45.538284 8.758716 2,025 351 195 -704
2018-10-17 17:50:10 GMT 45.532093 8.760391 2,275 349 205 -1216
2018-10-17 17:50:07 GMT 45.528881 8.761329 2,225 349 205 -1280
2018-10-17 17:50:01 GMT 45.521805 8.763297 2,375 350 210 -1216
2018-10-17 17:49:50 GMT 45.512375 8.765913 2,575 349 225 -1280
2018-10-17 17:49:46 GMT 45.508713 8.766894 2,600 349 225 -1280
2018-10-17 17:49:37 GMT 45.498093 8.769706 2,775 350 228 -768
2018-10-17 17:49:30 GMT 45.490849 8.771645 2,850 351 230 0
2018-10-17 17:49:26 GMT 45.487865 8.772382 2,850 350 232 0
2018-10-17 17:49:19 GMT 45.480000 8.774459 2,850 349 236 0
2018-10-17 17:49:15 GMT 45.476257 8.775591 2,875 349 237 0
2018-10-17 17:49:09 GMT 45.468750 8.777815 2,850 349 240 64
2018-10-17 17:49:06 GMT 45.465088 8.778861 2,850 350 243 0
2018-10-17 17:48:57 GMT 45.456676 8.781158 2,850 349 250 -320
2018-10-17 17:48:53 GMT 45.451080 8.782785 2,875 348 252 -384
2018-10-17 17:48:47 GMT 45.444946 8.784812 2,925 348 254 -896
2018-10-17 17:48:39 GMT 45.435654 8.787689 3,175 349 260 -2304
2018-10-17 17:48:36 GMT 45.432144 8.788661 3,100 351 258 -1088
2018-10-17 17:48:27 GMT 45.419853 8.789531 3,300 14 260 -1344
2018-10-17 17:48:16 GMT 45.407913 8.784943 3,550 14 260 -1792
2018-10-17 17:48:06 GMT 45.395554 8.782261 3,925 358 259 -2560
2018-10-17 17:47:58 GMT 45.386707 8.783971 4,275 343 262 -2240
2018-10-17 17:47:55 GMT 45.383331 8.785466 4,350 339 263 -2304
2018-10-17 17:47:48 GMT 45.375675 8.790938 4,650 321 265 -2432
2018-10-17 17:47:45 GMT 45.372208 8.794621 4,750 319 265 -2432
2018-10-17 17:47:37 GMT 45.366226 8.803532 5,075 302 268 -2176
2018-10-17 17:47:34 GMT 45.363853 8.808557 5,175 300 268 -2176
2018-10-17 17:47:27 GMT 45.360176 8.820079 5,500 284 272 -2240
2018-10-17 17:47:24 GMT 45.359207 8.825095 5,525 280 273 -2304
2018-10-17 17:47:17 GMT 45.358154 8.837520 5,800 272 274 -2240
2018-10-17 17:47:13 GMT 45.358017 8.845629 5,925 272 274 -2368
2018-10-17 17:47:07 GMT 45.357925 8.856158 6,200 272 274 -2368
2018-10-17 17:47:02 GMT 45.357834 8.863416 6,350 272 274 -2304
2018-10-17 17:46:56 GMT 45.357662 8.875010 6,600 272 274 -2176
2018-10-17 17:46:52 GMT 45.357605 8.881400 6,700 272 275 -2176
2018-10-17 17:46:46 GMT 45.357422 8.893367 6,950 272 276 -2048
2018-10-17 17:46:42 GMT 45.357334 8.900801 7,200 272 278 -1792
2018-10-17 17:46:36 GMT 45.357193 8.912593 7,300 272 279 -1792
2018-10-17 17:46:31 GMT 45.357101 8.920496 7,400 272 280 -1792
2018-10-17 17:46:25 GMT 45.356827 8.940321 7,725 272 286 -1792
2018-10-17 17:46:20 GMT 45.356827 8.940321 7,725 272 286 -1792
2018-10-17 17:46:15 GMT 45.356499 8.959217 8,050 272 286 -3136
2018-10-17 17:46:11 GMT 45.356499 8.959217 8,125 272 286 -3136
2018-10-17 17:46:04 GMT 45.356312 8.969399 8,400 272 284 -2624
2018-10-17 17:46:00 GMT 45.356140 8.977857 8,600 272 284 -2240
2018-10-17 17:45:54 GMT 45.355911 8.990740 8,825 272 285 -2240
2018-10-17 17:45:49 GMT 45.355751 8.998540 9,000 272 285 -2432
2018-10-17 17:45:44 GMT 45.355545 9.008462 9,225 273 285 -2432
2018-10-17 17:45:39 GMT 45.355331 9.017230 9,425 273 285 -2432
2018-10-17 17:45:34 GMT 45.355053 9.027278 9,625 273 285 -2368
2018-10-17 17:45:29 GMT 45.354633 9.041949 9,925 273 285 -2304
2018-10-17 17:45:24 GMT 45.354538 9.046195 10,025 273 286 -2304
2018-10-17 17:45:19 GMT 45.354263 9.055816 10,200 273 287 -1984
2018-10-17 17:45:13 GMT 45.353935 9.065931 10,375 274 289 -1920
2018-10-17 17:45:08 GMT 45.353531 9.075361 10,525 274 290 -2176
2018-10-17 17:45:03 GMT 45.353073 9.085170 10,725 275 291 -2240
2018-10-17 17:44:58 GMT 45.352524 9.095830 10,925 275 292 -2240
2018-10-17 17:44:52 GMT 45.351562 9.115840 11,575 274 295 -2112
2018-10-17 17:44:47 GMT 45.351562 9.115840 11,300 274 294 -2240
2018-10-17 17:44:43 GMT 45.351189 9.124480 11,475 274 295 -2176
2018-10-17 17:44:36 GMT 45.350693 9.137224 11,700 273 296 -2240
2018-10-17 17:44:32 GMT 45.350418 9.145203 11,850 273 297 -2112
2018-10-17 17:44:28 GMT 45.350052 9.158151 12,050 272 299 -2112
2018-10-17 17:44:22 GMT 45.349792 9.171775 12,325 272 301 -2176
2018-10-17 17:44:15 GMT 45.349686 9.178685 12,375 272 301 -2176
2018-10-17 17:44:12 GMT 45.349548 9.185028 12,625 272 303 -2368
2018-10-17 17:44:09 GMT 45.349457 9.191371 12,625 272 303 -2368
2018-10-17 17:44:04 GMT 45.349319 9.200461 12,875 272 303 -2432
2018-10-17 17:44:01 GMT 45.349182 9.206020 13,100 272 303 -2432
2018-10-17 17:43:56 GMT 45.348770 9.221911 13,225 273 304 -2368
2018-10-17 17:43:50 GMT 45.348587 9.226685 13,400 275 304 -2496
2018-10-17 17:43:47 GMT 45.347992 9.235905 13,600 279 304 -2688
2018-10-17 17:43:43 GMT 45.347374 9.241646 13,775 286 304 -2688
2018-10-17 17:43:40 GMT 45.346443 9.247407 13,850 287 304 -2624
2018-10-17 17:43:34 GMT 45.343781 9.257747 14,100 297 305 -2496
2018-10-17 17:43:31 GMT 45.340763 9.265695 14,275 304 305 -2112
2018-10-17 17:43:26 GMT 45.337505 9.272260 14,400 310 307 -1856
2018-10-17 17:43:23 GMT 45.334488 9.277235 14,475 315 309 -1792
2018-10-17 17:43:20 GMT 45.331512 9.281158 14,550 318 310 -1792
2018-10-17 17:43:14 GMT 45.322979 9.289677 15,025 334 313 -2112
2018-10-17 17:43:09 GMT 45.318558 9.292759 14,950 341 314 -2496
2018-10-17 17:43:06 GMT 45.314392 9.295088 15,075 344 313 -2752
2018-10-17 17:43:03 GMT 45.308640 9.297113 15,250 352 313 -2880
2018-10-17 17:43:00 GMT 45.305328 9.297900 15,350 354 312 -2880
2018-10-17 17:42:57 GMT 45.301575 9.298357 15,475 6 312 -2816
2018-10-17 17:42:53 GMT 45.296211 9.298386 15,750 11 312 -2816
2018-10-17 17:42:50 GMT 45.289883 9.297314 15,850 11 312 -2816
2018-10-17 17:42:42 GMT 45.279640 9.293027 16,175 22 312 -2432
2018-10-17 17:42:39 GMT 45.276123 9.290771 16,300 29 313 -2496
2018-10-17 17:42:36 GMT 45.272369 9.287829 16,425 37 313 -2624
2018-10-17 17:42:32 GMT 45.267609 9.283055 16,675 40 313 -2688
2018-10-17 17:42:29 GMT 45.264084 9.278804 16,725 45 313 -2624
2018-10-17 17:42:22 GMT 45.255066 9.262913 17,150 61 315 -2688
2018-10-17 17:42:14 GMT 45.252129 9.254642 17,350 68 315 -2816
2018-10-17 17:42:11 GMT 45.250397 9.248330 17,500 74 315 -2688
2018-10-17 17:42:08 GMT 45.249207 9.242183 17,625 77 315 -2688
2018-10-17 17:42:01 GMT 45.247749 9.226908 17,950 89 316 -2560
2018-10-17 17:41:57 GMT 45.247704 9.219874 18,125 91 316 -2496
2018-10-17 17:41:54 GMT 45.247845 9.213711 18,225 91 317 -2240
2018-10-17 17:41:50 GMT 45.248199 9.197780 18,450 91 319 -2048
2018-10-17 17:41:46 GMT 45.248199 9.197780 18,500 91 319 -2048
2018-10-17 17:41:41 GMT 45.248474 9.185944 18,725 92 322 -2048
2018-10-17 17:41:38 GMT 45.248657 9.178816 18,800 92 323 -2048
2018-10-17 17:41:35 GMT 45.248795 9.174630 18,875 92 324 -1984
2018-10-17 17:41:31 GMT 45.249069 9.163513 19,050 91 327 -1920
2018-10-17 17:41:27 GMT 45.249241 9.156904 19,125 91 329 -1856
2018-10-17 17:41:23 GMT 45.249390 9.149192 19,250 91 331 -1856
2018-10-17 17:41:19 GMT 45.249847 9.127873 19,500 91 334 -2368
2018-10-17 17:41:15 GMT 45.249847 9.127873 19,600 91 335 -2688
2018-10-17 17:41:10 GMT 45.249985 9.119456 19,775 91 335 -2752
2018-10-17 17:41:07 GMT 45.250126 9.111484 20,050 91 335 -2688
2018-10-17 17:41:03 GMT 45.250217 9.105723 20,050 91 335 -2688
2018-10-17 17:40:59 GMT 45.250359 9.095273 20,225 91 336 -2560
2018-10-17 17:40:56 GMT 45.250500 9.088641 20,375 91 337 -2496
2018-10-17 17:40:52 GMT 45.250637 9.081138 20,525 91 338 -2432
2018-10-17 17:40:49 GMT 45.250824 9.072764 20,725 91 339 -2432
2018-10-17 17:40:45 GMT 45.250946 9.065879 20,800 91 340 -2368
2018-10-17 17:40:42 GMT 45.251148 9.058964 20,925 92 341 -2240
2018-10-17 17:40:38 GMT 45.251431 9.046906 21,100 92 343 -2048
2018-10-17 17:40:35 GMT 45.251541 9.042598 21,175 92 344 -1920
2018-10-17 17:40:31 GMT 45.251770 9.034489 21,275 92 346 -1856
2018-10-17 17:40:28 GMT 45.251987 9.025202 21,450 91 348 -2048
2018-10-17 17:40:25 GMT 45.252136 9.019448 21,500 91 350 -2304
2018-10-17 17:40:20 GMT 45.252361 9.007851 21,700 91 351 -2560
2018-10-17 17:40:15 GMT 45.252590 8.996329 21,925 91 351 -2944
2018-10-17 17:40:11 GMT 45.252960 8.973149 22,450 90 344 -3968
2018-10-17 17:40:05 GMT 45.252960 8.973149 22,475 90 349 -3712
2018-10-17 17:40:00 GMT 45.253059 8.961896 22,775 90 346 -3840
2018-10-17 17:39:54 GMT 45.253197 8.949838 23,100 90 343 -3968
2018-10-17 17:39:49 GMT 45.253326 8.938359 23,425 91 340 -3840
2018-10-17 17:39:43 GMT 45.253525 8.923980 23,800 91 338 -2752
2018-10-17 17:39:38 GMT 45.253738 8.913051 23,975 91 341 -1472
2018-10-17 17:39:35 GMT 45.253967 8.901018 24,125 91 344 -1600
2018-10-17 17:39:28 GMT 45.254173 8.890351 24,250 91 344 -1728
2018-10-17 17:39:25 GMT 45.254410 8.881441 24,375 91 344 -1728
2018-10-17 17:39:22 GMT 45.254471 8.877084 24,375 91 344 -1728
2018-10-17 17:39:16 GMT 45.254826 8.863354 24,525 92 345 -1536
2018-10-17 17:39:11 GMT 45.255112 8.852299 24,675 92 347 -1408
2018-10-17 17:39:07 GMT 45.255386 8.842989 24,775 92 348 -1280
2018-10-17 17:39:03 GMT 45.255665 8.834750 24,950 92 350 -1408
2018-10-17 17:39:00 GMT 45.255898 8.827448 24,925 92 350 -1472
2018-10-17 17:38:53 GMT 45.256454 8.810834 25,175 92 352 -1856
2018-10-17 17:38:50 GMT 45.256714 8.804169 25,225 92 352 -1856
2018-10-17 17:38:45 GMT 45.257309 8.786708 25,450 92 352 -1792
2018-10-17 17:38:38 GMT 45.257629 8.777488 25,575 92 353 -1856
2018-10-17 17:38:32 GMT 45.258133 8.763101 25,750 92 353 -1984
2018-10-17 17:38:28 GMT 45.258408 8.753945 25,875 92 353 -1856
2018-10-17 17:38:22 GMT 45.258785 8.740294 26,050 91 354 -1536
2018-10-17 17:38:17 GMT 45.259003 8.728376 26,200 90 355 -1728
2018-10-17 17:38:12 GMT 45.258957 8.715951 26,350 87 355 -1728
2018-10-17 17:38:06 GMT 45.258316 8.703395 26,650 16 371 -960
2018-10-17 17:38:02 GMT 45.257202 8.695009 26,700 73 356 -1984
2018-10-17 17:37:58 GMT 45.255112 8.684823 26,750 69 356 -1920
2018-10-17 17:37:55 GMT 45.253338 8.678060 26,850 64 356 -1600
2018-10-17 17:37:52 GMT 45.250671 8.670371 26,925 60 356 -1024
2018-10-17 17:37:47 GMT 45.247612 8.662921 27,000 55 358 -1024
2018-10-17 17:37:44 GMT 45.243095 8.654212 27,100 49 360 -1152
2018-10-17 17:37:41 GMT 45.240955 8.650662 27,125 45 362 -1152
2018-10-17 17:37:37 GMT 45.236252 8.643963 27,200 41 362 -1280
2018-10-17 17:37:31 GMT 45.227825 8.634517 27,350 30 364 -1344
2018-10-17 17:37:27 GMT 45.221355 8.629158 27,450 26 365 -1088
2018-10-17 17:37:23 GMT 45.216064 8.625445 27,625 18 368 -832
2018-10-17 17:37:19 GMT 45.210880 8.622526 27,550 18 368 -832
2018-10-17 17:37:16 GMT 45.205063 8.619846 27,625 16 371 -960
2018-10-17 17:37:11 GMT 45.197193 8.616497 27,700 16 374 -832
2018-10-17 17:37:08 GMT 45.192913 8.614621 27,700 16 374 -832
2018-10-17 17:37:05 GMT 45.187088 8.612104 27,775 16 377 -832
2018-10-17 17:36:59 GMT 45.176743 8.607657 27,875 16 382 -832
2018-10-17 17:36:54 GMT 45.164608 8.602429 27,950 16 386 -704
2018-10-17 17:36:48 GMT 45.158249 8.599745 28,000 16 391 -960
2018-10-17 17:36:45 GMT 45.152924 8.597472 28,050 16 391 -960
2018-10-17 17:36:38 GMT 45.140354 8.592112 28,150 16 399 -704
2018-10-17 17:36:35 GMT 45.134304 8.589500 28,200 16 403 -832
2018-10-17 17:36:32 GMT 45.129089 8.587254 28,250 16 406 -1024
2018-10-17 17:36:28 GMT 45.121582 8.584050 28,375 17 409 -896
2018-10-17 17:36:24 GMT 45.116501 8.581826 28,350 17 411 -896
2018-10-17 17:36:16 GMT 45.102043 8.575566 28,525 17 419 -960
2018-10-17 17:36:12 GMT 45.095215 8.572540 28,525 17 419 -960
2018-10-17 17:36:07 GMT 45.085468 8.568197 28,600 17 422 -1088
2018-10-17 17:36:04 GMT 45.077137 8.564513 28,725 17 427 -896
2018-10-17 17:36:01 GMT 45.073654 8.562927 28,725 17 428 -960
2018-10-17 17:35:58 GMT 45.068710 8.560638 28,775 18 430 -1088
2018-10-17 17:35:55 GMT 45.062099 8.557546 28,875 17 438 -704
2018-10-17 17:35:52 GMT 45.056004 8.554732 28,875 18 435 -1024
2018-10-17 17:35:49 GMT 45.050079 8.552006 28,950 17 438 -640
2018-10-17 17:35:45 GMT 45.042549 8.548636 29,000 17 440 -448
2018-10-17 17:35:42 GMT 45.034515 8.545074 29,050 17 441 -384
2018-10-17 17:35:39 GMT 45.030865 8.543545 29,075 17 441 -448
2018-10-17 17:35:36 GMT 45.020508 8.539058 29,100 17 442 -448
2018-10-17 17:35:30 GMT 45.014057 8.536243 29,125 17 443 -512
2018-10-17 17:35:27 GMT 45.007599 8.533434 29,150 17 443 -512
2018-10-17 17:35:24 GMT 45.001492 8.530817 29,200 17 444 -448
2018-10-17 17:35:21 GMT 44.995625 8.528204 29,200 17 444 -448
2018-10-17 17:35:18 GMT 44.989666 8.525659 29,225 16 445 -448
2018-10-17 17:35:13 GMT 44.981052 8.521974 29,275 16 446 -448
2018-10-17 17:35:10 GMT 44.974915 8.519440 29,375 16 449 -768
2018-10-17 17:35:05 GMT 44.964016 8.515007 29,675 15 449 -320
2018-10-17 17:35:00 GMT 44.954006 8.511122 29,325 15 448 -192
2018-10-17 17:34:56 GMT 44.946945 8.508388 29,375 16 449 -640
2018-10-17 17:34:53 GMT 44.939804 8.505380 29,400 17 450 -1152
2018-10-17 17:34:50 GMT 44.932983 8.502502 29,425 17 459 -1024
2018-10-17 17:34:46 GMT 44.927193 8.500001 29,475 17 454 -1088
2018-10-17 17:34:42 GMT 44.917786 8.495963 29,575 17 459 -1024
2018-10-17 17:34:39 GMT 44.912888 8.493805 29,800 17 466 -1088
2018-10-17 17:34:36 GMT 44.906754 8.491189 29,675 17 465 -1088
2018-10-17 17:34:32 GMT 44.897781 8.487265 29,750 17 472 -896
2018-10-17 17:34:26 GMT 44.885330 8.481903 31,250 351 484 -512
2018-10-17 17:34:22 GMT 44.875427 8.477560 29,900 17 477 -1088
2018-10-17 17:34:19 GMT 44.864861 8.473072 29,975 16 480 -1536
2018-10-17 17:34:16 GMT 44.864861 8.473072 30,000 16 482 -1792
2018-10-17 17:34:12 GMT 44.855667 8.469282 30,150 15 484 -3072
2018-10-17 17:34:08 GMT 44.845688 8.465358 30,475 13 484 -3008
2018-10-17 17:34:05 GMT 44.841385 8.463854 30,475 12 484 -2816
2018-10-17 17:34:01 GMT 44.830223 8.460611 30,725 9 484 -2176
2018-10-17 17:33:55 GMT 44.819515 8.458267 30,875 6 485 -1408
2018-10-17 17:33:48 GMT 44.799683 8.456072 31,075 2 485 -1152
2018-10-17 17:33:44 GMT 44.795197 8.455941 31,075 0 486 -1088
2018-10-17 17:33:39 GMT 44.780598 8.456458 31,200 357 485 -448
2018-10-17 17:33:35 GMT 44.766773 8.458334 31,250 351 484 -512
2018-10-17 17:33:28 GMT 44.759232 8.459875 31,275 350 484 -384
2018-10-17 17:33:25 GMT 44.751320 8.461951 31,300 349 483 -320
2018-10-17 17:33:18 GMT 44.736187 8.467243 31,350 343 482 -384
2018-10-17 17:33:14 GMT 44.728508 8.470593 31,375 341 482 -448
2018-10-17 17:33:08 GMT 44.715565 8.477359 31,425 336 480 -512
2018-10-17 17:33:05 GMT 44.707375 8.482383 31,450 335 481 -448
2018-10-17 17:32:56 GMT 44.691788 8.493543 31,525 331 479 -512
2018-10-17 17:32:53 GMT 44.686844 8.497532 31,550 329 478 -512
2018-10-17 17:32:46 GMT 44.673576 8.509313 31,625 325 475 -384
2018-10-17 17:32:43 GMT 44.668175 8.514605 31,650 325 475 -448
2018-10-17 17:32:39 GMT 44.661053 8.521773 31,875 325 474 -384
2018-10-17 17:32:36 GMT 44.654629 8.528271 31,725 325 475 -384
2018-10-17 17:32:33 GMT 44.649445 8.533500 31,725 325 474 -448
2018-10-17 17:32:29 GMT 44.642624 8.540366 31,750 325 474 -384
2018-10-17 17:32:25 GMT 44.634842 8.548213 31,775 325 474 -384
2018-10-17 17:32:16 GMT 44.619297 8.563910 31,850 325 474 -448
2018-10-17 17:32:12 GMT 44.612221 8.571011 31,875 325 474 -512
2018-10-17 17:32:04 GMT 44.597809 8.585554 31,950 325 474 -384
2018-10-17 17:32:01 GMT 44.593365 8.590036 32,000 325 474 -320
2018-10-17 17:31:58 GMT 44.585632 8.597848 31,975 325 474 0
2018-10-17 17:31:54 GMT 44.578903 8.604649 32,000 325 474 0
2018-10-17 17:31:50 GMT 44.573914 8.609619 32,000 325 474 0
2018-10-17 17:31:45 GMT 44.564026 8.619625 32,000 325 474 0
2018-10-17 17:31:42 GMT 44.553314 8.630349 32,000 325 474 0
2018-10-17 17:31:39 GMT 44.553314 8.630349 32,000 325 474 0
2018-10-17 17:31:33 GMT 44.542110 8.641618 32,000 325 474 0
2018-10-17 17:31:28 GMT 44.534042 8.649772 32,000 325 474 0
2018-10-17 17:31:23 GMT 44.524330 8.659504 32,000 325 474 0
2018-10-17 17:31:20 GMT 44.518974 8.664930 32,000 325 474 0
2018-10-17 17:31:11 GMT 44.503510 8.680507 31,975 325 474 0
2018-10-17 17:31:07 GMT 44.497280 8.686769 31,975 325 474 0
2018-10-17 17:31:03 GMT 44.489639 8.694436 31,975 325 474 0
2018-10-17 17:31:00 GMT 44.484108 8.699966 31,975 325 474 0
2018-10-17 17:30:57 GMT 44.478802 8.705325 31,975 325 474 0
2018-10-17 17:30:52 GMT 44.468418 8.715709 31,975 325 474 0
2018-10-17 17:30:48 GMT 44.462906 8.721248 31,975 325 474 0
2018-10-17 17:30:42 GMT 44.452778 8.731451 31,975 325 474 0
2018-10-17 17:30:39 GMT 44.446884 8.737335 31,975 325 473 0
2018-10-17 17:30:35 GMT 44.439102 8.745117 31,975 325 473 0
2018-10-17 17:30:31 GMT 44.431183 8.753030 31,975 325 473 -64
2018-10-17 17:30:27 GMT 44.425636 8.758582 31,975 325 473 -64
2018-10-17 17:30:24 GMT 44.420334 8.763941 32,000 325 473 -64
2018-10-17 17:30:20 GMT 44.412884 8.771310 32,000 325 472 0
2018-10-17 17:30:17 GMT 44.407059 8.777226 32,000 325 473 0
2018-10-17 17:30:12 GMT 44.396347 8.787951 32,000 325 472 0
2018-10-17 17:30:09 GMT 44.391678 8.792528 32,000 325 473 -64
2018-10-17 17:30:06 GMT 44.388351 8.795895 32,000 325 473 -64
2018-10-17 17:30:03 GMT 44.383041 8.801188 32,000 325 473 0
2018-10-17 17:29:58 GMT 44.374477 8.809762 32,000 325 473 0
2018-10-17 17:29:55 GMT 44.368240 8.816005 32,000 325 473 0
2018-10-17 17:29:52 GMT 44.364029 8.820190 32,000 325 473 0
2018-10-17 17:29:49 GMT 44.356693 8.827515 32,025 325 473 0
2018-10-17 17:29:45 GMT 44.350315 8.833812 32,025 325 473 0
2018-10-17 17:29:42 GMT 44.345123 8.839024 32,025 325 473 0
2018-10-17 17:29:38 GMT 44.337662 8.846414 32,025 325 473 0
2018-10-17 17:29:32 GMT 44.328003 8.856027 32,025 325 473 0
2018-10-17 17:29:29 GMT 44.321960 8.862109 32,025 325 473 0
2018-10-17 17:29:26 GMT 44.316971 8.867079 32,025 325 473 0
2018-10-17 17:29:20 GMT 44.306259 8.877672 32,025 325 473 64
2018-10-17 17:29:17 GMT 44.299343 8.884590 32,025 325 473 0
2018-10-17 17:29:14 GMT 44.294128 8.889771 32,000 325 474 64
2018-10-17 17:29:09 GMT 44.285980 8.897879 32,000 325 475 64
2018-10-17 17:29:06 GMT 44.281036 8.902849 31,975 325 474 0
2018-10-17 17:29:03 GMT 44.274391 8.909376 32,000 325 474 64
2018-10-17 17:28:58 GMT 44.267075 8.916713 32,000 325 474 0
2018-10-17 17:28:52 GMT 44.255863 8.927865 32,000 325 474 0
2018-10-17 17:28:48 GMT 44.249393 8.934363 31,975 325 475 0
2018-10-17 17:28:44 GMT 44.242222 8.941397 31,975 325 475 0
2018-10-17 17:28:41 GMT 44.237045 8.946599 31,975 325 475 0
2018-10-17 17:28:38 GMT 44.231689 8.951896 31,975 325 475 0
2018-10-17 17:28:35 GMT 44.225601 8.957977 31,975 325 475 0
2018-10-17 17:28:31 GMT 44.218342 8.965179 31,975 325 474 64
2018-10-17 17:28:27 GMT 44.212242 8.971208 31,975 325 475 0
2018-10-17 17:28:24 GMT 44.204746 8.978644 31,975 325 475 0
2018-10-17 17:28:20 GMT 44.200092 8.983266 31,975 325 475 0
2018-10-17 17:28:16 GMT 44.192780 8.990521 31,975 325 475 0
2018-10-17 17:28:13 GMT 44.181099 9.002119 31,975 325 474 -64
2018-10-17 17:28:06 GMT 44.174835 9.008278 31,975 325 473 0
2018-10-17 17:28:02 GMT 44.167599 9.015459 32,000 325 473 0
2018-10-17 17:27:59 GMT 44.161175 9.021803 32,000 325 473 0
2018-10-17 17:27:55 GMT 44.155079 9.027819 31,975 325 473 0
2018-10-17 17:27:49 GMT 44.143345 9.039459 31,975 325 473 0
2018-10-17 17:27:45 GMT 44.136597 9.046129 31,975 325 473 0
2018-10-17 17:27:39 GMT 44.125191 9.057377 31,975 325 473 0
2018-10-17 17:27:35 GMT 44.119141 9.063394 31,975 325 472 0
2018-10-17 17:27:31 GMT 44.111969 9.070522 31,975 325 472 0
2018-10-17 17:27:26 GMT 44.102280 9.080200 31,975 325 472 0
2018-10-17 17:27:23 GMT 44.096878 9.085374 31,975 325 471 64
2018-10-17 17:27:18 GMT 44.082085 9.100015 31,975 325 472 0
2018-10-17 17:27:14 GMT 44.082085 9.100015 31,975 325 472 0
2018-10-17 17:27:10 GMT 44.074402 9.107538 31,975 325 472 0
2018-10-17 17:27:07 GMT 44.061951 9.119802 31,975 325 472 64
2018-10-17 17:27:03 GMT 44.061951 9.119802 31,975 325 471 0
2018-10-17 17:27:00 GMT 44.054077 9.127595 31,975 325 471 0
2018-10-17 17:26:57 GMT 44.042358 9.139156 31,975 325 471 0
2018-10-17 17:26:53 GMT 44.042358 9.139156 31,975 325 471 0
2018-10-17 17:26:50 GMT 44.037533 9.143895 31,975 325 471 0
2018-10-17 17:26:46 GMT 44.032227 9.149126 31,975 325 471 0
2018-10-17 17:26:43 GMT 44.026127 9.155077 31,975 325 471 0
2018-10-17 17:26:38 GMT 44.018188 9.162917 31,975 325 471 0
2018-10-17 17:26:31 GMT 44.005226 9.175677 31,975 325 471 0
2018-10-17 17:26:28 GMT 43.999374 9.181440 31,975 325 470 0
2018-10-17 17:26:25 GMT 43.994984 9.185878 31,975 325 470 0
2018-10-17 17:26:22 GMT 43.988297 9.192171 31,975 325 471 -64
2018-10-17 17:26:18 GMT 43.980881 9.199645 31,975 325 470 0
2018-10-17 17:26:15 GMT 43.970215 9.210120 31,975 325 470 0
2018-10-17 17:26:11 GMT 43.970215 9.210120 31,975 325 470 0
2018-10-17 17:26:08 GMT 43.965004 9.215240 31,975 325 470 0
2018-10-17 17:26:05 GMT 43.956711 9.223342 31,975 325 470 0
2018-10-17 17:26:01 GMT 43.949734 9.230216 31,975 325 470 0
2018-10-17 17:25:57 GMT 43.942978 9.236819 31,975 325 470 -64
2018-10-17 17:25:52 GMT 43.935745 9.243909 32,000 325 470 0
2018-10-17 17:25:49 GMT 43.930435 9.249147 32,000 325 470 0
2018-10-17 17:25:44 GMT 43.921143 9.258281 32,000 325 470 -64
2018-10-17 17:25:41 GMT 43.914680 9.264614 32,000 325 470 0
2018-10-17 17:25:38 GMT 43.911098 9.268079 32,000 325 470 0
2018-10-17 17:25:34 GMT 43.903015 9.276038 32,000 325 470 0
2018-10-17 17:25:30 GMT 43.895966 9.282936 32,000 325 470 0
2018-10-17 17:25:27 GMT 43.891434 9.287407 32,000 325 471 0
2018-10-17 17:25:23 GMT 43.884933 9.293731 32,000 325 471 0
2018-10-17 17:25:20 GMT 43.877518 9.301013 32,000 325 471 0
2018-10-17 17:25:15 GMT 43.868637 9.309636 32,000 325 471 0
2018-10-17 17:25:12 GMT 43.865288 9.313006 32,000 325 471 0
2018-10-17 17:25:08 GMT 43.858063 9.319983 32,000 325 471 0
2018-10-17 17:25:04 GMT 43.841858 9.335888 32,000 325 472 0
2018-10-17 17:25:00 GMT 43.841858 9.335888 32,000 325 472 0
2018-10-17 17:24:57 GMT 43.836426 9.341191 32,000 325 472 0
2018-10-17 17:24:52 GMT 43.828979 9.348450 32,000 325 472 -64
2018-10-17 17:24:49 GMT 43.823486 9.353812 32,000 325 472 0
2018-10-17 17:24:46 GMT 43.818283 9.358882 32,000 325 472 0
2018-10-17 17:24:43 GMT 43.811508 9.365525 32,000 325 472 0
2018-10-17 17:24:38 GMT 43.803726 9.373126 32,000 325 472 0
2018-10-17 17:24:34 GMT 43.797508 9.379185 32,000 325 473 0
2018-10-17 17:24:31 GMT 43.791275 9.385262 32,000 325 474 0
2018-10-17 17:24:25 GMT 43.780151 9.396057 32,000 325 474 0
2018-10-17 17:24:22 GMT 43.766411 9.409463 32,000 325 474 0
2018-10-17 17:24:17 GMT 43.766411 9.409463 32,000 325 474 0
2018-10-17 17:24:13 GMT 43.759521 9.416199 32,000 325 474 0
2018-10-17 17:24:09 GMT 43.752678 9.422804 32,000 325 474 0
2018-10-17 17:24:05 GMT 43.745728 9.429591 32,000 325 474 0
2018-10-17 17:24:02 GMT 43.739273 9.435915 32,000 325 474 0
2018-10-17 17:23:58 GMT 43.732197 9.442749 32,000 325 474 0
2018-10-17 17:23:55 GMT 43.726639 9.448178 32,000 325 474 0
2018-10-17 17:23:52 GMT 43.722427 9.452266 32,000 325 474 0
2018-10-17 17:23:49 GMT 43.715881 9.458590 32,000 325 475 0
2018-10-17 17:23:44 GMT 43.706825 9.467468 32,000 325 474 64
2018-10-17 17:23:41 GMT 43.702332 9.471812 32,000 325 474 0
2018-10-17 17:23:38 GMT 43.696400 9.477539 32,000 325 475 0
2018-10-17 17:23:34 GMT 43.690155 9.483628 32,000 325 474 0
2018-10-17 17:23:31 GMT 43.684574 9.489049 32,000 325 475 0
2018-10-17 17:23:28 GMT 43.678104 9.495326 32,000 325 475 0
2018-10-17 17:23:25 GMT 43.672379 9.500885 32,000 325 474 0
2018-10-17 17:23:21 GMT 43.664883 9.508144 32,000 325 475 0
2018-10-17 17:23:18 GMT 43.660675 9.512244 31,975 325 477 0
2018-10-17 17:23:15 GMT 43.654221 9.518504 31,975 325 475 0
2018-10-17 17:23:11 GMT 43.647564 9.524950 31,975 325 475 0
2018-10-17 17:23:07 GMT 43.640167 9.532173 31,975 325 475 0
2018-10-17 17:23:04 GMT 43.626335 9.545484 31,975 325 476 64
2018-10-17 17:22:59 GMT 43.626335 9.545484 31,975 325 476 64
2018-10-17 17:22:52 GMT 43.614624 9.556828 31,975 325 476 64
2018-10-17 17:22:49 GMT 43.601349 9.569667 31,950 325 476 0
2018-10-17 17:22:45 GMT 43.601349 9.569667 31,950 325 476 0
2018-10-17 17:22:42 GMT 43.595703 9.575108 31,950 325 476 0
2018-10-17 17:22:39 GMT 43.589767 9.580845 31,950 325 476 -64
2018-10-17 17:22:36 GMT 43.584579 9.585898 31,950 325 476 -64
2018-10-17 17:22:33 GMT 43.579178 9.591064 31,975 325 476 0
2018-10-17 17:22:29 GMT 43.571686 9.598282 31,975 325 476 0
2018-10-17 17:22:26 GMT 43.567635 9.602182 31,950 325 476 0
2018-10-17 17:22:23 GMT 43.562187 9.607479 31,975 325 475 0
2018-10-17 17:22:20 GMT 43.556946 9.612526 31,975 325 476 -128
2018-10-17 17:22:16 GMT 43.549759 9.619488 31,975 325 476 -64
2018-10-17 17:22:13 GMT 43.542847 9.626131 31,975 325 475 0
2018-10-17 17:22:08 GMT 43.532673 9.635991 31,975 325 475 -64
2018-10-17 17:22:05 GMT 43.527599 9.640830 31,975 325 475 0
2018-10-17 17:22:02 GMT 43.523483 9.644846 31,975 325 475 -64
2018-10-17 17:21:59 GMT 43.517220 9.650901 31,975 325 475 0
2018-10-17 17:21:56 GMT 43.510895 9.657046 31,975 325 475 0
2018-10-17 17:21:52 GMT 43.504974 9.662737 31,975 325 475 0
2018-10-17 17:21:47 GMT 43.490871 9.676339 31,975 326 476 0
2018-10-17 17:21:44 GMT 43.490871 9.676339 32,000 326 476 0
2018-10-17 17:21:41 GMT 43.485672 9.681382 32,000 326 476 -64
2018-10-17 17:21:36 GMT 43.477066 9.689622 32,000 326 476 0
2018-10-17 17:21:32 GMT 43.467499 9.698835 32,000 326 476 0
2018-10-17 17:21:29 GMT 43.464844 9.701439 32,000 326 476 0
2018-10-17 17:21:26 GMT 43.458889 9.707140 32,000 326 476 0
2018-10-17 17:21:21 GMT 43.447861 9.717727 31,975 326 476 0
2018-10-17 17:21:15 GMT 43.439163 9.726094 31,975 325 477 0
2018-10-17 17:21:10 GMT 43.429413 9.735420 32,000 325 477 0
2018-10-17 17:21:04 GMT 43.419506 9.744938 32,000 325 477 0
2018-10-17 17:21:01 GMT 43.414261 9.749983 32,000 325 477 0
2018-10-17 17:20:58 GMT 43.408813 9.755221 32,000 326 476 0
2018-10-17 17:20:52 GMT 43.397392 9.766126 32,000 326 476 0
2018-10-17 17:20:48 GMT 43.390968 9.772339 32,000 326 476 0
2018-10-17 17:20:45 GMT 43.385376 9.777704 31,975 325 477 0
2018-10-17 17:20:42 GMT 43.377934 9.784829 32,000 325 477 0
2018-10-17 17:20:39 GMT 43.373280 9.789342 32,000 325 477 0
2018-10-17 17:20:36 GMT 43.368530 9.793854 32,000 326 476 0
2018-10-17 17:20:31 GMT 43.359741 9.802296 32,000 326 476 0
2018-10-17 17:20:27 GMT 43.347794 9.813729 31,975 326 476 0
2018-10-17 17:20:19 GMT 43.332031 9.828775 31,975 326 476 0
2018-10-17 17:20:12 GMT 43.324120 9.836360 31,975 326 476 0
2018-10-17 17:20:07 GMT 43.316486 9.843685 32,000 326 477 -64
2018-10-17 17:20:02 GMT 43.306503 9.853203 31,975 326 477 -64
2018-10-17 17:19:59 GMT 43.301880 9.857675 32,000 326 477 -64
2018-10-17 17:19:55 GMT 43.294746 9.864480 32,000 326 476 0
2018-10-17 17:19:52 GMT 43.289345 9.869581 32,000 326 476 0
2018-10-17 17:19:49 GMT 43.280685 9.877886 32,000 326 476 0
2018-10-17 17:19:45 GMT 43.276634 9.881744 32,000 326 476 0
2018-10-17 17:19:39 GMT 43.265625 9.892230 32,000 326 477 0
2018-10-17 17:19:35 GMT 43.258713 9.898809 32,000 326 477 0
2018-10-17 17:19:30 GMT 43.248798 9.908229 32,000 326 478 64
2018-10-17 17:19:25 GMT 43.241116 9.915554 31,975 326 479 128
2018-10-17 17:19:16 GMT 43.222588 9.933210 31,925 326 481 512
2018-10-17 17:19:12 GMT 43.216919 9.938539 31,925 326 483 1152
2018-10-17 17:19:05 GMT 43.203781 9.951122 31,600 326 483 1152
2018-10-17 17:19:01 GMT 43.197189 9.957382 31,600 326 483 1152
2018-10-17 17:18:55 GMT 43.184692 9.969262 31,575 326 483 960
2018-10-17 17:18:52 GMT 43.180664 9.973095 31,550 326 483 960
2018-10-17 17:18:44 GMT 43.164677 9.988273 31,425 326 483 1024
2018-10-17 17:18:41 GMT 43.143173 10.008673 31,375 326 484 1280
2018-10-17 17:18:33 GMT 43.143173 10.008673 31,175 326 483 1280
2018-10-17 17:18:24 GMT 43.128323 10.022801 30,950 326 485 1216
2018-10-17 17:18:11 GMT 43.104019 10.045820 30,750 326 485 960
2018-10-17 17:18:03 GMT 43.085403 10.063477 30,575 326 485 1024
2018-10-17 17:17:54 GMT 43.073227 10.074974 30,475 326 484 896
2018-10-17 17:17:50 GMT 43.063248 10.084427 30,400 326 484 960
2018-10-17 17:17:42 GMT 43.051277 10.095782 30,275 326 484 960
2018-10-17 17:17:39 GMT 43.044666 10.102060 30,225 326 484 832
2018-10-17 17:17:32 GMT 43.032143 10.113896 30,125 326 484 896
2018-10-17 17:17:28 GMT 43.025299 10.120388 29,950 326 483 1216
2018-10-17 17:17:24 GMT 43.016361 10.128806 29,975 326 483 1280
2018-10-17 17:17:18 GMT 43.005798 10.138784 29,850 326 484 1600
2018-10-17 17:17:10 GMT 42.985565 10.157818 27,000 326 485 1600
2018-10-17 17:17:03 GMT 42.977165 10.165754 29,450 326 487 1024
2018-10-17 17:16:58 GMT 42.970837 10.171705 29,400 326 487 960
2018-10-17 17:16:55 GMT 42.964050 10.178067 29,325 326 487 896
2018-10-17 17:16:49 GMT 42.953979 10.187520 29,150 326 486 832
2018-10-17 17:16:44 GMT 42.942299 10.198517 29,150 326 486 960
2018-10-17 17:16:38 GMT 42.922001 10.217612 28,900 326 485 1280
2018-10-17 17:16:33 GMT 42.922001 10.217612 28,950 326 485 1536
2018-10-17 17:16:27 GMT 42.911247 10.227748 28,800 326 487 1536
2018-10-17 17:16:19 GMT 42.897354 10.240727 28,450 326 488 1344
2018-10-17 17:16:16 GMT 42.892345 10.245470 28,550 326 488 1344
2018-10-17 17:16:13 GMT 42.887089 10.250375 28,450 326 488 1408
2018-10-17 17:16:10 GMT 42.879684 10.257307 28,400 326 488 1408
2018-10-17 17:16:07 GMT 42.874695 10.262061 28,350 326 489 1344
2018-10-17 17:16:02 GMT 42.867069 10.269209 28,225 326 489 896
2018-10-17 17:15:58 GMT 42.858215 10.277518 28,175 326 488 960
2018-10-17 17:15:55 GMT 42.853195 10.282222 28,125 326 488 1024
2018-10-17 17:15:52 GMT 42.848450 10.286669 28,025 326 492 1728
2018-10-17 17:15:47 GMT 42.837479 10.297000 27,950 326 488 1472
2018-10-17 17:15:44 GMT 42.830383 10.303643 27,850 326 489 1600
2018-10-17 17:15:35 GMT 42.816746 10.316424 27,675 326 490 1792
2018-10-17 17:15:31 GMT 42.807220 10.325338 27,500 326 492 1664
2018-10-17 17:15:26 GMT 42.799301 10.332766 27,400 326 494 1472
2018-10-17 17:15:22 GMT 42.791794 10.339820 27,300 326 494 1408
2018-10-17 17:15:13 GMT 42.772614 10.357673 27,075 326 494 1216
2018-10-17 17:15:04 GMT 42.757298 10.371988 26,900 326 495 1152
2018-10-17 17:15:01 GMT 42.752087 10.376906 26,850 326 495 1152
2018-10-17 17:14:55 GMT 42.740250 10.388073 26,725 325 494 960
2018-10-17 17:14:51 GMT 42.730484 10.397793 26,650 324 494 960
2018-10-17 17:14:47 GMT 42.726196 10.402118 26,600 322 494 1536
2018-10-17 17:14:44 GMT 42.720898 10.407566 26,550 323 494 1152
2018-10-17 17:14:41 GMT 42.714935 10.413853 26,500 322 494 1472
2018-10-17 17:14:37 GMT 42.708324 10.420915 26,150 322 494 1536
2018-10-17 17:14:33 GMT 42.700134 10.429730 26,300 322 494 1344
2018-10-17 17:14:27 GMT 42.681198 10.450058 26,150 322 496 1280
2018-10-17 17:14:22 GMT 42.681198 10.450058 24,800 322 499 1024
2018-10-17 17:14:18 GMT 42.672062 10.459879 25,900 322 497 1792
2018-10-17 17:14:12 GMT 42.662842 10.469783 25,850 322 496 1536
2018-10-17 17:14:09 GMT 42.656754 10.476338 25,775 322 496 1664
2018-10-17 17:14:05 GMT 42.650986 10.482518 25,650 322 498 1600
2018-10-17 17:14:02 GMT 42.645714 10.488175 25,375 322 498 1536
2018-10-17 17:13:59 GMT 42.639084 10.495314 25,500 322 499 1344
2018-10-17 17:13:56 GMT 42.634323 10.500433 25,400 322 499 1216
2018-10-17 17:13:51 GMT 42.623108 10.512480 25,275 322 499 1216
2018-10-17 17:13:46 GMT 42.614616 10.521517 25,175 322 499 1216
2018-10-17 17:13:39 GMT 42.604095 10.532823 24,825 322 500 1216
2018-10-17 17:13:34 GMT 42.593307 10.544316 24,950 322 500 896
2018-10-17 17:13:29 GMT 42.586121 10.552056 24,900 322 499 1024
2018-10-17 17:13:25 GMT 42.575226 10.563667 24,800 322 499 1024
2018-10-17 17:13:20 GMT 42.566162 10.573342 24,725 322 499 1088
2018-10-17 17:13:13 GMT 42.555313 10.584953 24,600 322 499 1280
2018-10-17 17:13:07 GMT 42.544418 10.596563 24,475 322 499 1088
2018-10-17 17:13:03 GMT 42.537338 10.604106 24,400 322 499 1024
2018-10-17 17:12:58 GMT 42.528122 10.613979 24,350 322 499 960
2018-10-17 17:12:52 GMT 42.517914 10.624840 24,250 322 497 832
2018-10-17 17:12:48 GMT 42.510727 10.632456 24,175 322 496 832
2018-10-17 17:12:42 GMT 42.499924 10.644004 24,100 322 496 1024
2018-10-17 17:12:38 GMT 42.492325 10.652119 24,025 322 496 1088
2018-10-17 17:12:33 GMT 42.483109 10.661976 23,900 322 494 896
2018-10-17 17:12:27 GMT 42.473969 10.671657 23,850 322 494 896
2018-10-17 17:12:22 GMT 42.463322 10.682927 23,775 322 494 960
2018-10-17 17:12:18 GMT 42.455933 10.690821 23,675 322 493 960
2018-10-17 17:12:10 GMT 42.441116 10.706624 23,550 322 492 1152
2018-10-17 17:12:07 GMT 42.436615 10.711358 23,550 322 492 1152
2018-10-17 17:11:58 GMT 42.414955 10.734409 23,325 322 491 1088
2018-10-17 17:11:47 GMT 42.399315 10.751016 23,125 322 489 1216
2018-10-17 17:11:44 GMT 42.395233 10.755366 23,075 322 489 1472
2018-10-17 17:11:38 GMT 42.385765 10.765452 22,950 322 489 1536
2018-10-17 17:11:35 GMT 42.380413 10.771137 22,850 322 483 128
2018-10-17 17:11:26 GMT 42.361931 10.790682 22,725 322 487 192
2018-10-17 17:11:21 GMT 42.355362 10.797688 22,700 322 480 768
2018-10-17 17:11:17 GMT 42.348106 10.805309 22,675 322 484 128
2018-10-17 17:11:14 GMT 42.343544 10.810164 22,675 322 482 256
2018-10-17 17:11:07 GMT 42.329636 10.824904 22,600 322 479 1152
2018-10-17 17:11:03 GMT 42.323524 10.831306 22,575 322 479 1216
2018-10-17 17:10:59 GMT 42.315937 10.839418 22,450 322 479 1280
2018-10-17 17:10:54 GMT 42.307297 10.848500 22,350 322 477 1088
2018-10-17 17:10:50 GMT 42.300621 10.855578 22,275 322 477 1024
2018-10-17 17:10:44 GMT 42.289776 10.867011 22,175 322 476 1152
2018-10-17 17:10:39 GMT 42.281162 10.876082 22,075 322 473 1408
2018-10-17 17:10:34 GMT 42.271637 10.886140 21,950 322 475 1280
2018-10-17 17:10:23 GMT 42.253510 10.905272 21,725 322 473 1344
2018-10-17 17:10:12 GMT 42.234516 10.925328 21,475 322 472 1408
2018-10-17 17:10:01 GMT 42.217014 10.943788 21,225 322 471 1408
2018-10-17 17:09:52 GMT 42.200161 10.961545 21,000 322 470 1344
2018-10-17 17:09:41 GMT 42.181137 10.981646 20,625 322 469 1088
2018-10-17 17:09:30 GMT 42.162827 11.000997 20,575 322 465 1408
2018-10-17 17:09:21 GMT 42.147324 11.017307 20,300 322 465 1344
2018-10-17 17:09:10 GMT 42.128845 11.037044 20,075 320 464 1600
2018-10-17 17:09:00 GMT 42.112968 11.056462 19,675 312 463 1408
2018-10-17 17:08:49 GMT 42.098072 11.078115 19,550 311 462 1536
2018-10-17 17:08:39 GMT 42.083782 11.100279 19,175 312 461 1856
2018-10-17 17:08:28 GMT 42.068253 11.124219 18,975 312 461 1984
2018-10-17 17:08:17 GMT 42.053055 11.147627 18,625 312 462 1856
2018-10-17 17:08:07 GMT 42.038300 11.170285 18,350 312 460 1536
2018-10-17 17:07:56 GMT 42.022842 11.194070 18,050 312 458 1536
2018-10-17 17:07:46 GMT 42.008606 11.215980 17,750 312 457 1664
2018-10-17 17:07:38 GMT 41.997986 11.232371 17,575 311 454 1408
2018-10-17 17:07:35 GMT 41.993797 11.238758 17,525 312 453 1344
2018-10-17 17:07:24 GMT 41.979271 11.261178 17,275 312 450 1472
2018-10-17 17:07:14 GMT 41.964935 11.283146 17,025 312 447 1600
2018-10-17 17:07:06 GMT 41.953110 11.301291 16,775 312 445 1920
2018-10-17 17:07:03 GMT 41.949852 11.306273 16,725 312 445 1920
2018-10-17 17:06:55 GMT 41.939331 11.322497 16,425 312 445 2688
2018-10-17 17:06:52 GMT 41.935410 11.328527 16,300 312 445 2624
2018-10-17 17:06:45 GMT 41.925293 11.343946 15,500 312 447 2816
2018-10-17 17:06:42 GMT 41.921539 11.349751 15,875 312 446 2752
2018-10-17 17:06:34 GMT 41.910416 11.366855 15,500 312 448 2432
2018-10-17 17:06:31 GMT 41.906799 11.372348 15,400 312 448 2240
2018-10-17 17:06:23 GMT 41.896084 11.388798 15,150 312 447 1280
2018-10-17 17:06:20 GMT 41.891987 11.395122 15,075 312 445 1152
2018-10-17 17:06:14 GMT 41.882629 11.409427 14,925 312 442 1536
2018-10-17 17:06:09 GMT 41.877323 11.417605 14,825 312 441 1728
2018-10-17 17:06:02 GMT 41.867966 11.431977 14,625 311 440 1728
2018-10-17 17:05:58 GMT 41.862377 11.440600 14,525 312 438 1344
2018-10-17 17:05:51 GMT 41.852558 11.455674 14,375 312 435 960
2018-10-17 17:05:46 GMT 41.846970 11.464233 14,300 312 433 1280
2018-10-17 17:05:41 GMT 41.840332 11.474408 14,175 312 430 1728
2018-10-17 17:05:36 GMT 41.833237 11.485207 14,000 312 427 2112
2018-10-17 17:05:32 GMT 41.827885 11.493360 13,850 312 427 2240
2018-10-17 17:05:25 GMT 41.818714 11.507284 13,600 311 426 2432
2018-10-17 17:05:22 GMT 41.814056 11.514566 13,475 311 426 2432
2018-10-17 17:05:15 GMT 41.805954 11.527842 13,200 306 426 2560
2018-10-17 17:05:10 GMT 41.801193 11.537392 13,050 300 425 2048
2018-10-17 17:05:04 GMT 41.795517 11.552374 12,800 293 423 2240
2018-10-17 17:05:01 GMT 41.792877 11.561450 12,675 288 421 2368
2018-10-17 17:04:54 GMT 41.789291 11.578217 12,400 283 420 2496
2018-10-17 17:04:50 GMT 41.787804 11.588149 12,250 280 419 2368
2018-10-17 17:04:43 GMT 41.786312 11.605650 12,025 274 416 1792
2018-10-17 17:04:39 GMT 41.785950 11.614671 11,950 273 415 1600
2018-10-17 17:04:30 GMT 41.784988 11.640077 11,750 273 406 640
2018-10-17 17:04:22 GMT 41.784348 11.657992 11,650 273 399 704
2018-10-17 17:04:19 GMT 41.784027 11.665920 11,625 273 396 704
2018-10-17 17:04:09 GMT 41.783112 11.690577 11,500 273 385 704
2018-10-17 17:03:59 GMT 41.782215 11.715322 11,350 273 373 768
2018-10-17 17:03:48 GMT 41.781284 11.739466 11,200 273 362 896
2018-10-17 17:03:38 GMT 41.780502 11.761738 11,050 273 350 960
2018-10-17 17:03:27 GMT 41.779724 11.783524 10,925 273 341 832
2018-10-17 17:03:20 GMT 41.779099 11.801552 10,775 273 322 832
2018-10-17 17:03:17 GMT 41.778957 11.805640 10,750 273 326 896
2018-10-17 17:03:07 GMT 41.778259 11.825659 10,600 273 312 960
2018-10-17 17:02:56 GMT 41.777561 11.845497 10,375 273 301 2112
2018-10-17 17:02:46 GMT 41.776817 11.864404 9,925 274 298 3072
2018-10-17 17:02:36 GMT 41.776154 11.884148 9,375 265 296 3456
2018-10-17 17:02:25 GMT 41.776657 11.902500 8,850 265 296 3456
2018-10-17 17:02:14 GMT 41.778118 11.921954 8,300 265 296 2368
2018-10-17 17:02:04 GMT 41.779610 11.940414 7,950 264 290 2240
2018-10-17 17:01:54 GMT 41.781052 11.959055 7,500 264 285 3264
2018-10-17 17:01:43 GMT 41.782471 11.977407 6,875 265 288 3968
2018-10-17 17:01:33 GMT 41.783890 11.995884 6,250 265 291 3200
2018-10-17 17:01:27 GMT 41.784779 12.007226 5,925 265 290 2560
2018-10-17 17:01:22 GMT 41.785336 12.014700 5,750 265 288 2560
2018-10-17 17:01:16 GMT 41.786175 12.025686 5,475 265 285 2752
2018-10-17 17:01:11 GMT 41.786865 12.034399 5,275 265 284 2816
2018-10-17 17:01:00 GMT 41.788315 12.053279 4,725 265 281 3200
2018-10-17 17:00:56 GMT 41.788879 12.060679 4,500 265 280 3200
2018-10-17 17:00:50 GMT 41.789619 12.070845 4,200 265 279 3200
2018-10-17 17:00:40 GMT 41.790970 12.088346 3,675 265 276 2816
2018-10-17 17:00:35 GMT 41.791664 12.097544 3,425 265 274 2752
2018-10-17 17:00:29 GMT 41.792358 12.106497 3,200 264 271 2688
2018-10-17 17:00:25 GMT 41.792953 12.113800 3,000 264 268 2304
2018-10-17 17:00:21 GMT 41.793530 12.121241 2,850 264 264 1984
2018-10-17 17:00:18 GMT 41.793900 12.125393 2,750 264 262 1792
2018-10-17 17:00:08 GMT 41.795158 12.141298 2,500 264 248 1408
2018-10-17 16:59:58 GMT 41.796295 12.156622 2,275 266 231 1280
2018-10-17 16:59:47 GMT 41.796890 12.171291 2,150 271 212 704
2018-10-17 16:59:37 GMT 41.795948 12.184221 2,000 282 197 1024
2018-10-17 16:59:29 GMT 41.794552 12.193547 1,850 280 187 1152
2018-10-17 16:59:25 GMT 41.793995 12.198273 1,775 278 182 1024
2018-10-17 16:59:19 GMT 41.793686 12.204999 1,675 267 172 1344
2018-10-17 16:59:14 GMT 41.794006 12.209618 1,575 261 168 1536
2018-10-17 16:59:08 GMT 41.795059 12.216048 1,425 251 161 1408
2018-10-17 16:59:03 GMT 41.796204 12.220230 1,300 250 156 1984
2018-10-17 16:58:57 GMT 41.797714 12.225786 1,075 250 154 2752
2018-10-17 16:58:53 GMT 41.798740 12.229444 875 250 155 2688
2018-10-17 16:58:47 GMT 41.800232 12.234873 625 251 157 2560
2018-10-17 16:58:42 GMT 41.801350 12.239089 425 251 157 2688
2018-10-17 16:58:32 GMT 41.804008 12.248929 0 250 170
2018-10-17 16:58:20 GMT 41.806797 12.259177 0 250 125
2018-10-17 16:58:10 GMT 41.808369 12.264862 0 250 82
2018-10-17 16:58:05 GMT 41.808971 12.267066 0 250 56
2018-10-17 16:58:00 GMT 41.809345 12.268439 0 250 29
2018-10-17 16:57:54 GMT 41.809570 12.269310 0 247 22
2018-10-17 16:57:49 GMT 41.809708 12.269981 0 281 21
2018-10-17 16:57:39 GMT 41.809227 12.270866 0 340 17
2018-10-17 16:57:28 GMT 41.808598 12.271182 0 340 13
2018-10-17 16:57:17 GMT 41.808014 12.271370 0 19 12
2018-10-17 16:57:05 GMT 41.807613 12.270855 0 67 12
2018-10-17 16:56:55 GMT 41.807384 12.270012 0 67 19
2018-10-17 16:56:45 GMT 41.807098 12.268934 0 70 22
2018-10-17 16:56:35 GMT 41.806744 12.267655 0 70 22
2018-10-17 16:56:23 GMT 41.806366 12.266299 0 70 21
2018-10-17 16:56:13 GMT 41.806046 12.265159 0 70 21
2018-10-17 16:56:02 GMT 41.805737 12.264032 0 70 18
2018-10-17 16:55:52 GMT 41.805481 12.263074 0 70 15
2018-10-17 16:55:42 GMT 41.805237 12.262275 0 47 14
2018-10-17 16:55:31 GMT 41.804695 12.261803 0 11 14
2018-10-17 16:55:21 GMT 41.804062 12.261525 0 25 17
2018-10-17 16:55:10 GMT 41.803391 12.261101 0 25 15
2018-10-17 16:54:59 GMT 41.802780 12.260726 0 25 15
2018-10-17 16:54:49 GMT 41.802162 12.260343 0 22 14
2018-10-17 16:54:38 GMT 41.801571 12.259992 0 25 14
2018-10-17 16:54:28 GMT 41.800999 12.259634 0 25 14
2018-10-17 16:54:17 GMT 41.800438 12.259291 0 25 13
2018-10-17 16:54:07 GMT 41.799919 12.258970 0 22 13
2018-10-17 16:53:54 GMT 41.799324 12.258570 0 67 13
2018-10-17 16:53:44 GMT 41.799385 12.257824 0 115 13
2018-10-17 16:53:32 GMT 41.799694 12.257028 0 115 12
2018-10-17 16:53:23 GMT 41.799854 12.256544 0 115 10
2018-10-17 16:53:12 GMT 41.800011 12.256016 0 84 10
2018-10-17 16:53:02 GMT 41.799778 12.255616 0 25 7
2018-10-17 16:52:51 GMT 41.799511 12.255436 0 22 7
2018-10-17 16:52:42 GMT 41.799278 12.255297 0 25 8
2018-10-17 16:52:31 GMT 41.798962 12.255105 0 25 8
2018-10-17 16:52:20 GMT 41.798664 12.254921 0 25 7
2018-10-17 16:52:07 GMT 41.798389 12.254750 0 22 5
2018-10-17 16:51:59 GMT 41.798241 12.254672 0 25 5
2018-10-17 16:48:17 GMT 41.797932 12.254469 0 25 0
2018-10-17 16:48:06 GMT 41.797840 12.254406 0 25 3
2018-10-17 16:47:56 GMT 41.797729 12.254339 0 25 4
2018-10-17 16:47:45 GMT 41.797611 12.254259 0 25 4
2018-10-17 16:47:27 GMT 41.797428 12.254157 0 30 4
2018-10-17 16:47:07 GMT 41.797382 12.254147 0 39 3
2018-10-17 16:47:02 GMT 41.797394 12.254211 0 50 3
2018-10-17 16:46:52 GMT 41.797417 12.254344 0 67 3
2018-10-17 16:46:31 GMT 41.797291 12.254562 0 115 3

Making use of Plane Finder data

You are free to use the raw flight data, aircraft information and images provided in this report for your own purposes provided the data is correctly attributed to Plane Finder. We ask that you please credit Plane Finder and link to planefinder.net in close proximity to the content.

Optionally one of the following logos (no smaller then 150x24px) can be used and must link to planefinder.net

Embedding the Plane Finder map

You are welcome to embed the Plane Finder playback map on your website to offer visitors a more interactive experience. We suggest using the following HTML code:

<iframe src="//planefinder.net/data/report/AF1605-F-GKXY-7700-squawk-2018-10-17/map" width="800" height="600" seamless="seamless"></iframe>

Where our data comes from

Plane Finder has a global network of data feeds and antenna radars that receive data broadcast directly from aircraft. The primary technologies used are ADS-B and MLAT. We also show feeds from the FAA and a FLARM glider feed.

Click here to find out more about the Plane Finder network.

How we collect our data